Time;durP1;ratioP1;P1;durP2;ratioP2;P2;SDS_P1;SDS_P2;PMS_P1;PMS_P2;Temp;Humidity;BMP_temperature;BMP_pressure;BME280_temperature;BME280_humidity;BME280_pressure;Samples;Min_cycle;Max_cycle;Signal;HPM_P1;HPM_P2
2021/04/03 00:00:59;;;;;;;13.65;3.58;;;14.60;49.10;;;;;;5097824;28;20401;-74
2021/04/03 00:03:27;;;;;;;13.18;3.75;;;14.60;49.20;;;;;;5076227;28;20473;-74
2021/04/03 00:05:53;;;;;;;16.67;4.07;;;14.60;49.20;;;;;;5098016;28;20050;-74
2021/04/03 00:08:23;;;;;;;18.55;4.45;;;14.60;49.30;;;;;;5097781;28;20044;-74
2021/04/03 00:10:55;;;;;;;16.23;4.35;;;14.60;49.40;;;;;;5098048;28;20040;-74
2021/04/03 00:13:25;;;;;;;22.63;4.90;;;14.60;49.50;;;;;;5097102;28;20119;-73
2021/04/03 00:15:52;;;;;;;18.70;4.32;;;14.60;49.60;;;;;;5097948;28;20044;-73
2021/04/03 00:18:18;;;;;;;15.80;3.80;;;14.60;49.60;;;;;;5097333;28;20462;-73
2021/04/03 00:20:46;;;;;;;20.63;4.10;;;14.60;49.70;;;;;;5097604;28;20059;-73
2021/04/03 00:23:14;;;;;;;19.83;4.80;;;14.60;49.80;;;;;;5097597;28;20104;-73
2021/04/03 00:25:40;;;;;;;15.52;4.18;;;14.60;49.90;;;;;;5097701;28;20043;-73
2021/04/03 00:28:06;;;;;;;20.48;4.60;;;14.60;49.90;;;;;;5097284;28;20036;-73
2021/04/03 00:30:32;;;;;;;17.63;4.28;;;14.60;50.00;;;;;;5097574;28;20048;-73
2021/04/03 00:32:59;;;;;;;16.52;4.80;;;14.60;50.00;;;;;;5097392;28;20089;-73
2021/04/03 00:35:27;;;;;;;16.42;4.68;;;14.60;50.10;;;;;;5096901;28;20068;-73
2021/04/03 00:37:55;;;;;;;14.77;4.40;;;14.60;50.10;;;;;;5097907;28;20411;-73
2021/04/03 00:40:32;;;;;;;21.80;4.70;;;14.50;50.10;;;;;;5097300;28;20036;-73
2021/04/03 00:43:01;;;;;;;19.67;4.88;;;14.50;50.10;;;;;;5096896;28;20109;-73
2021/04/03 00:45:26;;;;;;;18.13;4.40;;;14.50;50.10;;;;;;5096804;28;20040;-73
2021/04/03 00:47:53;;;;;;;18.75;4.93;;;14.50;50.20;;;;;;5097044;28;20052;-72
2021/04/03 00:50:25;;;;;;;18.42;4.93;;;14.50;50.30;;;;;;5097578;28;20055;-73
2021/04/03 00:52:52;;;;;;;19.27;4.70;;;14.50;50.30;;;;;;5096549;28;20429;-74
2021/04/03 00:55:17;;;;;;;23.98;5.30;;;14.50;51.00;;;;;;5096446;28;20068;-73
2021/04/03 00:57:46;;;;;;;24.85;4.97;;;14.50;50.40;;;;;;5096778;28;20044;-73
2021/04/03 01:00:12;;;;;;;22.15;4.93;;;14.50;50.40;;;;;;5096722;28;20044;-73
2021/04/03 01:02:39;;;;;;;16.95;4.65;;;14.50;50.40;;;;;;5096923;28;20498;-73
2021/04/03 01:05:11;;;;;;;19.05;5.03;;;14.50;50.40;;;;;;5096671;28;20520;-73
2021/04/03 01:07:38;;;;;;;18.40;4.13;;;14.50;50.40;;;;;;5096719;28;20108;-72
2021/04/03 01:10:05;;;;;;;17.83;4.65;;;14.40;50.50;;;;;;5096117;28;20050;-73
2021/04/03 01:12:40;;;;;;;21.17;4.63;;;14.40;50.60;;;;;;5097216;28;20044;-73
2021/04/03 01:15:08;;;;;;;19.25;4.95;;;14.40;50.60;;;;;;5096555;28;20131;-73
2021/04/03 01:17:55;;;;;;;20.95;5.32;;;14.40;50.70;;;;;;5096599;28;20040;-72
2021/04/03 01:20:27;;;;;;;20.98;5.45;;;14.40;50.70;;;;;;5096348;28;20043;-72
2021/04/03 01:23:35;;;;;;;20.67;5.45;;;14.40;50.70;;;;;;5096139;28;20335;-73
2021/04/03 01:26:20;;;;;;;17.02;5.05;;;14.40;50.70;;;;;;5014402;28;20167;-72
2021/04/03 01:29:09;;;;;;;20.10;4.80;;;14.40;50.70;;;;;;5072058;28;20135;-72
2021/04/03 01:31:37;;;;;;;22.90;4.78;;;14.40;50.80;;;;;;5084129;28;20055;-73
2021/04/03 01:34:06;;;;;;;19.33;4.43;;;14.40;50.80;;;;;;5096105;28;20043;-73
2021/04/03 01:36:35;;;;;;;19.75;4.97;;;14.30;50.80;;;;;;5096949;28;20044;-72
2021/04/03 01:39:06;;;;;;;18.63;5.43;;;14.30;50.80;;;;;;5096244;28;20036;-73
2021/04/03 01:41:35;;;;;;;19.48;5.00;;;14.30;50.80;;;;;;5096810;28;20051;-73
2021/04/03 01:44:03;;;;;;;18.52;5.15;;;14.30;51.00;;;;;;5096087;28;20328;-72
2021/04/03 01:46:32;;;;;;;22.73;5.13;;;14.30;51.00;;;;;;5095908;28;20454;-72
2021/04/03 01:49:01;;;;;;;21.15;5.00;;;14.30;51.10;;;;;;5096053;28;20389;-72
2021/04/03 01:51:29;;;;;;;21.38;5.38;;;14.30;51.20;;;;;;5096116;28;20100;-73
2021/04/03 01:53:57;;;;;;;23.70;5.82;;;14.30;51.30;;;;;;5095117;28;20050;-72
2021/04/03 01:56:24;;;;;;;26.48;5.50;;;14.30;51.20;;;;;;5095178;28;20346;-72
2021/04/03 01:58:52;;;;;;;23.60;5.50;;;14.30;51.30;;;;;;5095739;28;20036;-73
2021/04/03 02:01:19;;;;;;;22.02;5.68;;;14.30;51.30;;;;;;5095942;28;20040;-73
2021/04/03 02:03:46;;;;;;;21.17;5.15;;;14.30;51.30;;;;;;5095781;28;20036;-73
2021/04/03 02:06:12;;;;;;;21.85;6.07;;;14.30;51.40;;;;;;5095604;28;20039;-73
2021/04/03 02:08:40;;;;;;;23.38;5.25;;;14.30;51.50;;;;;;5095483;28;20111;-72
2021/04/03 02:11:07;;;;;;;22.67;5.35;;;14.30;51.40;;;;;;5095863;28;20059;-73
2021/04/03 02:13:34;;;;;;;17.52;5.10;;;14.30;51.40;;;;;;5095789;28;20131;-73
2021/04/03 02:16:04;;;;;;;22.20;6.10;;;14.30;51.40;;;;;;5095718;28;20075;-73
2021/04/03 02:18:31;;;;;;;21.98;5.50;;;14.30;51.40;;;;;;5095687;28;20036;-72
2021/04/03 02:21:05;;;;;;;21.98;5.88;;;14.30;51.50;;;;;;5094945;28;20048;-72
2021/04/03 02:23:36;;;;;;;26.38;6.28;;;14.30;51.50;;;;;;5096020;28;20055;-73
2021/04/03 02:26:03;;;;;;;20.65;5.97;;;14.30;51.60;;;;;;5094876;28;20104;-72
2021/04/03 02:28:29;;;;;;;24.92;5.75;;;14.20;51.60;;;;;;5095406;28;20128;-73
2021/04/03 02:30:55;;;;;;;21.27;5.97;;;14.30;51.70;;;;;;5095440;28;20350;-73
2021/04/03 02:33:22;;;;;;;22.67;5.18;;;14.30;51.70;;;;;;5095467;28;20055;-73
2021/04/03 02:35:48;;;;;;;24.05;6.97;;;14.20;51.70;;;;;;5095350;28;20423;-72
2021/04/03 02:38:15;;;;;;;23.75;6.30;;;14.30;51.80;;;;;;5095606;28;20308;-73
2021/04/03 02:40:41;;;;;;;23.95;5.60;;;14.20;51.80;;;;;;5095341;28;20032;-73
2021/04/03 02:43:22;;;;;;;25.20;6.65;;;14.20;51.90;;;;;;5095803;28;20064;-73
2021/04/03 02:46:11;;;;;;;24.67;6.55;;;14.20;52.00;;;;;;5095186;28;20346;-72
2021/04/03 02:48:42;;;;;;;24.17;5.90;;;14.20;51.90;;;;;;5094852;28;20052;-72
2021/04/03 02:51:10;;;;;;;26.10;6.07;;;14.20;51.90;;;;;;5095017;28;20086;-72
2021/04/03 02:53:37;;;;;;;25.48;6.57;;;14.20;52.00;;;;;;5094607;28;20036;-73
2021/04/03 02:56:06;;;;;;;23.17;5.55;;;14.20;52.00;;;;;;5095099;28;20044;-73
2021/04/03 02:58:35;;;;;;;24.30;6.03;;;14.20;52.20;;;;;;5095130;28;20046;-73
2021/04/03 03:01:04;;;;;;;25.52;6.32;;;14.20;52.10;;;;;;5094017;28;20036;-72
2021/04/03 03:03:34;;;;;;;26.52;6.55;;;14.20;52.00;;;;;;5095041;28;20055;-73
2021/04/03 03:06:01;;;;;;;20.48;6.32;;;14.20;52.10;;;;;;5080793;28;20131;-72
2021/04/03 03:08:29;;;;;;;21.45;5.07;;;14.20;52.10;;;;;;5098891;28;20044;-73
2021/04/03 03:10:56;;;;;;;24.30;5.57;;;14.20;52.10;;;;;;5099678;28;20059;-72
2021/04/03 03:13:24;;;;;;;22.90;5.85;;;14.20;52.10;;;;;;5099337;28;20093;-72
2021/04/03 03:15:50;;;;;;;24.83;6.03;;;14.20;52.20;;;;;;5098740;28;20044;-72
2021/04/03 03:18:17;;;;;;;25.45;5.13;;;14.20;52.20;;;;;;5098616;28;20040;-73
2021/04/03 03:20:44;;;;;;;22.27;5.55;;;14.20;52.20;;;;;;5098405;28;20473;-73
2021/04/03 03:23:11;;;;;;;23.20;5.70;;;14.10;52.20;;;;;;5098303;28;20040;-72
2021/04/03 03:25:39;;;;;;;21.00;6.03;;;14.10;52.30;;;;;;5098788;28;20071;-73
2021/04/03 03:28:06;;;;;;;20.17;5.32;;;14.10;52.40;;;;;;5099041;28;20066;-72
2021/04/03 03:30:32;;;;;;;19.38;5.60;;;14.10;53.00;;;;;;5098560;28;20111;-72
2021/04/03 03:32:58;;;;;;;24.00;5.32;;;14.10;52.40;;;;;;5098621;28;20051;-72
2021/04/03 03:35:24;;;;;;;19.17;5.20;;;14.10;52.50;;;;;;5098789;28;20108;-72
2021/04/03 03:37:52;;;;;;;24.17;5.72;;;14.10;52.50;;;;;;5098309;28;20059;-72
2021/04/03 03:40:18;;;;;;;30.63;6.75;;;14.10;52.60;;;;;;5099025;28;20049;-73
2021/04/03 03:42:45;;;;;;;28.23;5.85;;;14.10;52.60;;;;;;5098285;28;20036;-72
2021/04/03 03:45:12;;;;;;;24.98;6.30;;;14.10;52.70;;;;;;5098538;28;20044;-72
2021/04/03 03:47:38;;;;;;;32.58;7.38;;;14.10;52.80;;;;;;5097937;28;20432;-72
2021/04/03 03:50:06;;;;;;;22.65;7.43;;;14.10;52.80;;;;;;5098367;28;20071;-72
2021/04/03 03:52:32;;;;;;;26.08;6.15;;;14.10;52.80;;;;;;5097511;28;20048;-72
2021/04/03 03:54:58;;;;;;;24.20;6.80;;;14.10;52.80;;;;;;5097943;28;20039;-72
2021/04/03 03:57:23;;;;;;;21.00;5.38;;;14.10;52.80;;;;;;5098087;28;20105;-72
2021/04/03 03:59:49;;;;;;;22.83;5.75;;;14.10;52.80;;;;;;5097891;28;20047;-72
2021/04/03 04:02:16;;;;;;;22.02;5.93;;;14.10;52.80;;;;;;5079972;28;20048;-73
2021/04/03 04:04:42;;;;;;;26.63;6.25;;;14.00;52.80;;;;;;5097713;28;20405;-73
2021/04/03 04:07:08;;;;;;;24.00;6.18;;;14.00;52.80;;;;;;5097744;28;20040;-72
2021/04/03 04:09:34;;;;;;;27.52;7.03;;;14.00;52.80;;;;;;5097485;28;20075;-72
2021/04/03 04:12:04;;;;;;;23.88;6.18;;;14.00;52.90;;;;;;5097816;28;20343;-72
2021/04/03 04:14:31;;;;;;;25.80;6.97;;;14.00;53.00;;;;;;5098040;28;20055;-73
2021/04/03 04:16:57;;;;;;;21.83;6.05;;;14.00;53.00;;;;;;5097808;28;20043;-72
2021/04/03 04:19:23;;;;;;;27.52;6.47;;;14.10;53.00;;;;;;5097844;28;20104;-73
2021/04/03 04:21:49;;;;;;;24.10;5.90;;;14.00;53.00;;;;;;5097812;28;20099;-73
2021/04/03 04:24:15;;;;;;;21.45;5.63;;;14.00;53.00;;;;;;5098132;28;20044;-72
2021/04/03 04:26:41;;;;;;;23.10;6.07;;;14.00;53.00;;;;;;5097693;28;20044;-72
2021/04/03 04:29:07;;;;;;;25.20;5.93;;;14.00;53.10;;;;;;5097431;28;20422;-72
2021/04/03 04:31:33;;;;;;;25.52;5.97;;;14.00;53.20;;;;;;5097351;28;20043;-72
2021/04/03 04:33:58;;;;;;;25.83;6.40;;;14.00;53.20;;;;;;5097489;28;20327;-72
2021/04/03 04:36:24;;;;;;;26.88;6.95;;;14.00;53.20;;;;;;5097270;28;20398;-72
2021/04/03 04:38:50;;;;;;;23.88;6.43;;;13.90;53.10;;;;;;5097511;28;20047;-73
2021/04/03 04:41:16;;;;;;;22.92;6.13;;;14.00;53.20;;;;;;5097128;28;20044;-72
2021/04/03 04:43:42;;;;;;;25.25;6.30;;;13.90;53.20;;;;;;5097789;28;20050;-72
2021/04/03 04:46:07;;;;;;;22.00;6.18;;;14.00;53.30;;;;;;5097012;28;20044;-73
2021/04/03 04:48:33;;;;;;;26.35;5.90;;;14.00;53.40;;;;;;5096479;28;20044;-73
2021/04/03 04:50:59;;;;;;;23.15;5.30;;;14.00;53.70;;;;;;5097052;28;20135;-72
2021/04/03 04:53:25;;;;;;;22.75;5.45;;;13.90;54.00;;;;;;5096628;28;20115;-72
2021/04/03 04:55:51;;;;;;;28.83;6.00;;;13.90;54.50;;;;;;5096349;28;20098;-73
2021/04/03 04:58:17;;;;;;;19.75;4.75;;;13.90;54.80;;;;;;5096758;28;20048;-73
2021/04/03 05:00:43;;;;;;;25.05;6.07;;;14.00;54.90;;;;;;5095218;28;20113;-69
2021/04/03 05:03:09;;;;;;;22.00;5.78;;;14.10;54.90;;;;;;5086968;28;20358;-74
2021/04/03 05:05:35;;;;;;;21.75;5.63;;;14.30;54.90;;;;;;5096385;28;20048;-75
2021/04/03 05:08:01;;;;;;;20.75;5.57;;;14.20;53.70;;;;;;5096566;28;20067;-75
2021/04/03 05:10:27;;;;;;;17.48;5.55;;;14.30;55.60;;;;;;5078552;28;20354;-73
2021/04/03 05:12:53;;;;;;;20.80;5.75;;;14.60;56.10;;;;;;5085835;28;20048;-72
2021/04/03 05:15:19;;;;;;;27.13;5.35;;;14.70;55.60;;;;;;5096277;28;20096;-72
2021/04/03 05:17:44;;;;;;;25.25;5.10;;;14.90;55.40;;;;;;5096570;28;20435;-72
2021/04/03 05:20:11;;;;;;;22.65;4.75;;;15.10;56.20;;;;;;5096061;28;20044;-72
2021/04/03 05:22:36;;;;;;;27.05;5.50;;;15.30;56.50;;;;;;5079401;28;20052;-76
2021/04/03 05:25:03;;;;;;;26.52;5.97;;;15.30;54.40;;;;;;5084308;28;20350;-77
2021/04/03 05:27:29;;;;;;;24.58;5.18;;;15.30;56.60;;;;;;5074972;28;20050;-82
2021/04/03 05:29:54;;;;;;;22.27;5.32;;;15.50;56.70;;;;;;5095361;28;20119;-74
2021/04/03 05:32:20;;;;;;;21.83;5.15;;;15.60;56.90;;;;;;5095704;28;20032;-74
2021/04/03 05:34:46;;;;;;;30.20;5.90;;;15.70;56.80;;;;;;5091292;28;20036;-75
2021/04/03 05:37:12;;;;;;;21.42;5.03;;;15.60;55.30;;;;;;5076152;28;20028;-75
2021/04/03 05:39:38;;;;;;;24.95;5.03;;;15.80;57.80;;;;;;5087990;28;20055;-74
2021/04/03 05:42:04;;;;;;;21.10;4.75;;;16.00;58.10;;;;;;5082294;28;20363;-73
2021/04/03 05:44:31;;;;;;;23.65;4.90;;;16.10;57.90;;;;;;5086069;28;20048;-74
2021/04/03 05:46:58;;;;;;;15.40;4.13;;;16.20;57.70;;;;;;5095240;28;20101;-73
2021/04/03 05:49:24;;;;;;;20.52;4.63;;;16.40;57.90;;;;;;5093657;28;20042;-73
2021/04/03 05:51:50;;;;;;;24.38;5.18;;;16.60;57.80;;;;;;5078114;28;20041;-72
2021/04/03 05:54:16;;;;;;;18.42;4.47;;;16.70;57.90;;;;;;5075906;28;20435;-72
2021/04/03 05:56:42;;;;;;;17.35;4.05;;;16.90;58.10;;;;;;5075355;28;20396;-71
2021/04/03 05:59:08;;;;;;;21.75;6.55;;;17.00;58.00;;;;;;5075489;28;20435;-72
2021/04/03 06:01:37;;;;;;;21.02;4.10;;;17.00;57.90;;;;;;5075316;28;20055;-72
2021/04/03 06:04:04;;;;;;;22.52;4.00;;;17.00;58.10;;;;;;5076450;28;20074;-72
2021/04/03 06:06:30;;;;;;;19.10;4.75;;;17.00;58.30;;;;;;5080077;28;20474;-72
2021/04/03 06:08:56;;;;;;;24.75;5.03;;;17.00;58.20;;;;;;5076076;28;20037;-72
2021/04/03 06:11:23;;;;;;;19.40;4.53;;;17.10;58.50;;;;;;5075954;28;20044;-72
2021/04/03 06:14:01;;;;;;;19.05;4.55;;;17.00;58.30;;;;;;5078228;28;20119;-73
2021/04/03 06:16:33;;;;;;;17.58;4.85;;;17.00;58.40;;;;;;5095487;28;20047;-72
2021/04/03 06:19:08;;;;;;;25.55;4.47;;;17.10;58.00;;;;;;5090060;28;20051;-73
2021/04/03 06:21:34;;;;;;;16.38;4.35;;;17.10;57.50;;;;;;5081552;28;20040;-73
2021/04/03 06:24:00;;;;;;;21.58;5.47;;;17.20;57.60;;;;;;5094709;28;20040;-73
2021/04/03 06:26:25;;;;;;;16.13;4.13;;;17.30;57.80;;;;;;5092414;28;20044;-73
2021/04/03 06:28:51;;;;;;;18.08;4.47;;;17.40;57.50;;;;;;5096645;28;20358;-73
2021/04/03 06:31:18;;;;;;;17.42;4.15;;;17.50;57.40;;;;;;5093871;28;20040;-73
2021/04/03 06:33:45;;;;;;;15.93;4.70;;;17.60;57.20;;;;;;5094684;28;20040;-73
2021/04/03 06:36:15;;;;;;;17.77;3.70;;;17.60;56.80;;;;;;5094760;28;20062;-73
2021/04/03 06:38:44;;;;;;;16.90;4.22;;;17.60;56.70;;;;;;5094240;28;20040;-72
2021/04/03 06:41:26;;;;;;;17.63;5.13;;;17.60;56.40;;;;;;5098910;28;20040;-73
2021/04/03 06:44:18;;;;;;;14.15;3.80;;;17.70;56.80;;;;;;5098852;28;20393;-73
2021/04/03 06:46:46;;;;;;;23.35;4.07;;;17.80;56.70;;;;;;5095709;28;20442;-73
2021/04/03 06:49:13;;;;;;;20.38;3.65;;;17.80;56.60;;;;;;5098766;28;20032;-73
2021/04/03 06:51:40;;;;;;;15.25;3.50;;;17.80;56.60;;;;;;5099120;28;20062;-73
2021/04/03 06:54:07;;;;;;;17.95;4.20;;;17.70;56.70;;;;;;5079381;28;20040;-73
2021/04/03 06:56:35;;;;;;;22.63;4.75;;;17.80;56.80;;;;;;5092804;28;20108;-73
2021/04/03 06:59:12;;;;;;;18.42;4.85;;;17.80;56.70;;;;;;5085512;28;20036;-75
2021/04/03 07:01:57;;;;;;;15.73;3.45;;;17.80;56.60;;;;;;5096521;28;20533;-74
2021/04/03 07:04:36;;;;;;;17.70;3.72;;;17.90;56.30;;;;;;5098165;28;20111;-74
2021/04/03 07:07:03;;;;;;;20.85;3.50;;;17.90;56.50;;;;;;5099301;28;20043;-72
2021/04/03 07:09:30;;;;;;;18.65;4.05;;;17.80;56.80;;;;;;5092443;28;20048;-73
2021/04/03 07:11:57;;;;;;;19.42;3.92;;;17.80;57.00;;;;;;5078782;28;20048;-73
2021/04/03 07:14:23;;;;;;;21.92;4.32;;;17.90;57.20;;;;;;5078781;28;20139;-72
2021/04/03 07:16:50;;;;;;;18.42;4.13;;;17.80;56.80;;;;;;5079894;28;20382;-73
2021/04/03 07:19:18;;;;;;;24.40;5.00;;;17.90;56.80;;;;;;5084413;28;20036;-73
2021/04/03 07:21:45;;;;;;;20.88;4.68;;;17.80;56.80;;;;;;5091059;28;20036;-73
2021/04/03 07:24:13;;;;;;;32.55;5.07;;;17.90;56.80;;;;;;5097448;28;20036;-73
2021/04/03 07:26:46;;;;;;;29.83;4.68;;;17.90;56.90;;;;;;5095950;28;20110;-73
2021/04/03 07:29:44;;;;;;;20.77;4.40;;;17.80;57.00;;;;;;5098694;28;20115;-73
2021/04/03 07:32:32;;;;;;;24.67;4.43;;;17.90;56.90;;;;;;5099017;28;20036;-74
2021/04/03 07:35:00;;;;;;;23.33;4.50;;;17.90;56.90;;;;;;5080805;28;20044;-73
2021/04/03 07:37:34;;;;;;;20.23;4.60;;;17.80;57.40;;;;;;5078809;28;20458;-73
2021/04/03 07:40:00;;;;;;;20.50;4.13;;;17.90;56.90;;;;;;5078175;28;20115;-73
2021/04/03 07:42:38;;;;;;;18.77;4.20;;;17.90;56.90;;;;;;5077947;28;20036;-72
2021/04/03 07:45:06;;;;;;;21.27;4.55;;;17.90;57.00;;;;;;5078008;28;20067;-73
2021/04/03 07:47:47;;;;;;;27.20;4.55;;;17.90;57.00;;;;;;5086099;28;20059;-73
2021/04/03 07:50:39;;;;;;;18.73;4.50;;;17.90;56.90;;;;;;5096832;28;20044;-72
2021/04/03 07:53:09;;;;;;;23.17;4.57;;;17.90;56.60;;;;;;5098083;28;20051;-72
2021/04/03 07:55:37;;;;;;;19.65;3.92;;;17.90;56.50;;;;;;5098585;28;20051;-72
2021/04/03 07:58:21;;;;;;;19.45;3.83;;;18.00;56.50;;;;;;5098032;28;20111;-72
2021/04/03 08:00:48;;;;;;;26.20;4.15;;;18.00;56.30;;;;;;5097741;28;20055;-73
2021/04/03 08:03:20;;;;;;;25.75;4.82;;;18.00;56.20;;;;;;5097150;28;20127;-73
2021/04/03 08:05:48;;;;;;;17.55;4.13;;;18.00;55.40;;;;;;5098224;28;20070;-72
2021/04/03 08:08:17;;;;;;;17.30;4.28;;;18.00;54.80;;;;;;5097685;28;20410;-73
2021/04/03 08:10:43;;;;;;;18.50;4.50;;;17.90;54.20;;;;;;5097898;28;20040;-72
2021/04/03 08:13:10;;;;;;;22.33;4.60;;;17.90;54.60;;;;;;5097821;28;20183;-74
2021/04/03 08:15:37;;;;;;;22.38;5.28;;;17.90;54.80;;;;;;5097723;28;20058;-72
2021/04/03 08:18:08;;;;;;;19.75;4.10;;;17.90;54.90;;;;;;5097475;28;20044;-73
2021/04/03 08:20:35;;;;;;;15.50;3.65;;;18.00;55.30;;;;;;5096710;28;20097;-76
2021/04/03 08:23:06;;;;;;;16.75;3.88;;;17.90;55.20;;;;;;5097249;28;20052;-75
2021/04/03 08:25:33;;;;;;;17.67;4.20;;;17.90;55.40;;;;;;5097339;28;20039;-75
2021/04/03 08:28:16;;;;;;;18.70;3.67;;;17.90;55.50;;;;;;5097429;28;20126;-77
2021/04/03 08:30:42;;;;;;;24.27;4.82;;;17.90;55.60;;;;;;5096914;28;20052;-73
2021/04/03 08:33:12;;;;;;;15.27;4.00;;;18.00;55.60;;;;;;5097051;28;20445;-72
2021/04/03 08:35:40;;;;;;;20.60;4.43;;;18.00;55.60;;;;;;5097010;28;20068;-72
2021/04/03 08:38:10;;;;;;;19.13;3.83;;;18.00;55.80;;;;;;5097161;28;20066;-74
2021/04/03 08:40:36;;;;;;;24.40;4.25;;;18.00;56.00;;;;;;5097313;28;20055;-72
2021/04/03 08:43:02;;;;;;;19.80;3.92;;;17.90;56.00;;;;;;5097185;28;20035;-72
2021/04/03 08:45:37;;;;;;;23.75;4.00;;;17.90;56.00;;;;;;5097382;28;20040;-72
2021/04/03 08:48:07;;;;;;;18.65;3.33;;;17.90;56.30;;;;;;5097000;28;20374;-73
2021/04/03 08:50:33;;;;;;;22.83;4.13;;;17.90;56.00;;;;;;5096503;28;20090;-72
2021/04/03 08:53:04;;;;;;;16.77;3.50;;;18.00;56.10;;;;;;5096885;28;20324;-72
2021/04/03 08:55:30;;;;;;;15.93;3.95;;;17.90;56.10;;;;;;5097072;28;20044;-70
2021/04/03 08:58:00;;;;;;;19.40;4.57;;;17.50;52.50;;;;;;5096849;28;20059;-71
2021/04/03 09:00:26;;;;;;;19.42;3.85;;;17.20;55.30;;;;;;5096843;28;20370;-70
2021/04/03 09:02:53;;;;;;;16.58;3.58;;;17.40;56.30;;;;;;5096000;28;20082;-72
2021/04/03 09:05:20;;;;;;;19.05;4.25;;;17.50;56.30;;;;;;5096543;28;20044;-72
2021/04/03 09:07:46;;;;;;;21.00;3.58;;;17.60;56.20;;;;;;5096475;28;20067;-71
2021/04/03 09:10:14;;;;;;;22.88;3.97;;;17.60;56.30;;;;;;5096304;28;20064;-72
2021/04/03 09:12:41;;;;;;;24.60;3.97;;;17.70;56.30;;;;;;5094993;28;20032;-72
2021/04/03 09:15:09;;;;;;;22.50;3.50;;;17.70;56.30;;;;;;5096774;28;20051;-72
2021/04/03 09:17:44;;;;;;;23.75;4.35;;;17.80;56.50;;;;;;5096549;28;20107;-71
2021/04/03 09:20:14;;;;;;;17.98;4.15;;;17.80;56.50;;;;;;5097147;28;20054;-71
2021/04/03 09:22:42;;;;;;;24.10;4.13;;;17.80;56.10;;;;;;5095932;28;20032;-71
2021/04/03 09:25:13;;;;;;;31.42;4.50;;;17.80;55.40;;;;;;5096349;28;20035;-74
2021/04/03 09:27:40;;;;;;;21.33;4.88;;;17.80;54.90;;;;;;5096499;28;20117;-73
2021/04/03 09:30:09;;;;;;;17.80;3.80;;;17.80;54.00;;;;;;5096415;28;20085;-72
2021/04/03 09:32:53;;;;;;;25.13;4.32;;;17.80;54.50;;;;;;5096193;28;20047;-71
2021/04/03 09:35:27;;;;;;;;;;;17.80;54.40;;;;;;5096771;28;20493;-72
2021/04/03 09:38:00;;;;;;;22.47;3.47;;;17.80;54.90;;;;;;5096215;28;20322;-71
2021/04/03 09:40:43;;;;;;;13.65;3.38;;;17.70;53.80;;;;;;5096835;28;20044;-72
2021/04/03 09:43:11;;;;;;;24.73;4.40;;;17.70;55.10;;;;;;5095626;28;20040;-74
2021/04/03 09:45:37;;;;;;;25.38;3.88;;;17.70;55.50;;;;;;5095610;28;20118;-72
2021/04/03 09:48:04;;;;;;;22.83;4.70;;;17.80;55.70;;;;;;5095648;28;20052;-72
2021/04/03 09:50:31;;;;;;;20.98;3.40;;;17.80;55.80;;;;;;5095875;28;20048;-73
2021/04/03 09:53:06;;;;;;;17.77;3.92;;;17.90;56.10;;;;;;5096037;28;20047;-72
2021/04/03 09:55:32;;;;;;;;;;;17.90;56.30;;;;;;5096597;28;20506;-74
2021/04/03 09:57:57;;;;;;;16.30;3.90;;;17.90;55.60;;;;;;5095880;28;19951;-78
2021/04/03 10:00:23;;;;;;;17.35;3.95;;;17.80;54.80;;;;;;5095504;28;20063;-74
2021/04/03 10:02:49;;;;;;;14.52;3.60;;;17.70;53.90;;;;;;5095580;28;20143;-75
2021/04/03 10:05:15;;;;;;;19.58;3.92;;;17.70;53.40;;;;;;5096053;28;20511;-74
2021/04/03 10:07:41;;;;;;;15.55;4.13;;;17.70;54.00;;;;;;5095617;28;20039;-74
2021/04/03 10:10:08;;;;;;;23.30;4.47;;;17.60;54.30;;;;;;5095626;28;20044;-75
2021/04/03 10:12:34;;;;;;;17.17;4.10;;;17.60;55.10;;;;;;5095122;28;20406;-74
2021/04/03 10:14:59;;;;;;;11.85;3.10;;;17.50;55.90;;;;;;5095721;28;20055;-74
2021/04/03 10:17:25;;;;;;;15.23;3.80;;;17.50;56.70;;;;;;5096057;28;20111;-75
2021/04/03 10:19:51;;;;;;;14.05;3.63;;;17.50;57.30;;;;;;5095344;28;20118;-75
2021/04/03 10:22:17;;;;;;;14.43;3.28;;;17.40;57.60;;;;;;5095691;28;20040;-75
2021/04/03 10:24:43;;;;;;;28.15;3.92;;;17.40;57.90;;;;;;5095450;28;20047;-74
2021/04/03 10:27:09;;;;;;;13.52;3.33;;;17.40;58.30;;;;;;5095135;28;20035;-75
2021/04/03 10:29:35;;;;;;;13.60;3.50;;;17.40;58.50;;;;;;5095482;28;20108;-76
2021/04/03 10:32:00;;;;;;;21.83;4.63;;;17.30;58.70;;;;;;5095535;28;20044;-77
2021/04/03 10:34:26;;;;;;;19.38;4.05;;;17.30;58.80;;;;;;5095220;28;20075;-74
2021/04/03 10:36:52;;;;;;;18.27;3.95;;;17.40;58.80;;;;;;5095441;28;20063;-69
2021/04/03 10:39:18;;;;;;;15.50;3.20;;;17.40;58.60;;;;;;5095320;28;20036;-74
2021/04/03 10:41:44;;;;;;;18.67;3.67;;;17.40;57.40;;;;;;5095124;28;20141;-77
2021/04/03 10:44:09;;;;;;;23.88;4.45;;;17.40;55.30;;;;;;5095004;28;20044;-74
2021/04/03 10:46:35;;;;;;;22.17;4.30;;;17.30;53.30;;;;;;5094761;28;20404;-74
2021/04/03 10:49:01;;;;;;;18.23;4.20;;;17.30;52.70;;;;;;5094635;28;20043;-73
2021/04/03 10:51:27;;;;;;;16.90;3.80;;;17.30;51.80;;;;;;5079009;28;20051;-71
2021/04/03 10:53:53;;;;;;;18.88;4.35;;;17.30;51.20;;;;;;5074917;28;20029;-71
2021/04/03 10:56:19;;;;;;;15.35;3.90;;;17.20;51.40;;;;;;5074438;28;20483;-76
2021/04/03 10:58:45;;;;;;;20.88;4.57;;;17.20;51.20;;;;;;5082481;28;20044;-72
2021/04/03 11:01:12;;;;;;;15.02;4.05;;;17.10;51.00;;;;;;5094831;28;20343;-74
2021/04/03 11:03:38;;;;;;;11.30;3.60;;;17.10;51.30;;;;;;5095024;28;20342;-72
2021/04/03 11:06:04;;;;;;;13.88;3.13;;;17.00;51.50;;;;;;5095198;28;20134;-73
2021/04/03 11:08:30;;;;;;;16.08;3.65;;;17.00;51.70;;;;;;5095067;28;20056;-72
2021/04/03 11:10:57;;;;;;;12.70;3.67;;;16.90;51.80;;;;;;5094834;28;20067;-74
2021/04/03 11:13:23;;;;;;;12.50;3.08;;;16.90;51.90;;;;;;5094744;28;20055;-72
2021/04/03 11:15:49;;;;;;;12.77;3.60;;;16.80;52.00;;;;;;5094832;28;20444;-72
2021/04/03 11:18:16;;;;;;;15.13;2.97;;;16.80;52.20;;;;;;5095160;28;20113;-71
2021/04/03 11:20:42;;;;;;;12.68;3.97;;;16.80;52.50;;;;;;5095589;28;20093;-71
2021/04/03 11:23:08;;;;;;;14.10;4.07;;;16.80;52.70;;;;;;5094962;28;20043;-73
2021/04/03 11:25:33;;;;;;;11.07;3.35;;;16.70;52.90;;;;;;5095627;28;20040;-72
2021/04/03 11:28:02;;;;;;;13.93;3.13;;;16.70;53.00;;;;;;5098204;28;20111;-74
2021/04/03 11:30:28;;;;;;;8.48;3.00;;;16.70;53.20;;;;;;5098663;28;20036;-72
2021/04/03 11:32:54;;;;;;;12.05;3.60;;;16.70;53.40;;;;;;5098679;28;20047;-73
2021/04/03 11:35:23;;;;;;;11.23;3.50;;;16.60;53.60;;;;;;5098724;28;20351;-73
2021/04/03 11:37:50;;;;;;;11.85;3.90;;;16.60;53.70;;;;;;5098376;28;20039;-73
2021/04/03 11:40:17;;;;;;;11.93;3.15;;;16.60;53.70;;;;;;5098402;28;20056;-72
2021/04/03 11:42:45;;;;;;;11.43;3.40;;;16.60;53.80;;;;;;5098313;28;20051;-72
2021/04/03 11:45:12;;;;;;;10.50;3.40;;;16.50;53.90;;;;;;5080374;28;20043;-71
2021/04/03 11:47:37;;;;;;;10.45;2.97;;;16.50;54.00;;;;;;5097993;28;20520;-72
2021/04/03 11:50:05;;;;;;;12.00;2.92;;;16.50;54.20;;;;;;5080303;28;20040;-71
2021/04/03 11:52:32;;;;;;;8.43;3.03;;;16.50;54.30;;;;;;5098908;28;20040;-72
2021/04/03 11:54:59;;;;;;;10.68;3.17;;;16.50;54.20;;;;;;5098202;28;20044;-72
2021/04/03 11:57:25;;;;;;;10.20;2.70;;;16.40;54.40;;;;;;5098101;28;20036;-72
2021/04/03 11:59:51;;;;;;;9.38;2.55;;;16.40;54.50;;;;;;5097968;28;20342;-72
2021/04/03 12:02:17;;;;;;;8.15;2.88;;;16.40;55.20;;;;;;5097779;28;20115;-72
2021/04/03 12:04:42;;;;;;;14.85;3.97;;;16.40;54.60;;;;;;5098168;28;20036;-72
2021/04/03 12:07:08;;;;;;;9.77;2.65;;;16.40;54.80;;;;;;5097920;28;20100;-73
2021/04/03 12:09:34;;;;;;;11.00;3.08;;;16.40;54.90;;;;;;5097740;28;20082;-72
2021/04/03 12:12:00;;;;;;;11.88;3.63;;;16.30;55.00;;;;;;5097819;28;20438;-72
2021/04/03 12:14:26;;;;;;;15.23;2.90;;;16.30;55.00;;;;;;5098011;28;20071;-72
2021/04/03 12:16:52;;;;;;;10.80;2.63;;;16.30;55.10;;;;;;5097862;28;20115;-71
2021/04/03 12:19:18;;;;;;;9.48;3.05;;;16.30;55.10;;;;;;5097674;28;20118;-72
2021/04/03 12:21:44;;;;;;;13.40;3.35;;;16.30;55.20;;;;;;5097856;28;20043;-72
2021/04/03 12:24:10;;;;;;;6.82;2.88;;;16.30;55.20;;;;;;5097800;28;20119;-73
2021/04/03 12:26:36;;;;;;;12.43;3.55;;;16.30;55.30;;;;;;5097492;28;20119;-72
2021/04/03 12:29:02;;;;;;;12.02;3.08;;;16.30;55.40;;;;;;5079459;28;20043;-72
2021/04/03 12:31:27;;;;;;;11.50;2.78;;;16.20;55.40;;;;;;5097353;28;20047;-72
2021/04/03 12:33:53;;;;;;;10.27;3.55;;;16.20;55.40;;;;;;5098051;28;20079;-72
2021/04/03 12:36:20;;;;;;;10.25;3.72;;;16.20;55.40;;;;;;5097392;28;20043;-72
2021/04/03 12:38:46;;;;;;;9.38;3.08;;;16.20;55.60;;;;;;5096216;28;20113;-73
2021/04/03 12:41:12;;;;;;;10.90;3.50;;;16.20;55.70;;;;;;5096916;28;20435;-72
2021/04/03 12:43:38;;;;;;;11.48;2.90;;;16.20;55.70;;;;;;5097231;28;20438;-71